createdAt,value
2019-04-16T00:00:01.358Z,15.20
2019-04-16T00:03:03.966Z,13.83
2019-04-16T00:06:21.254Z,14.40
2019-04-16T00:09:31.474Z,15.70
2019-04-16T00:12:50.474Z,15.67
2019-04-16T00:15:51.802Z,14.87
2019-04-16T00:18:57.825Z,15.70
2019-04-16T00:22:12.471Z,15.07
2019-04-16T00:25:13.947Z,14.67
2019-04-16T00:28:15.397Z,14.97
2019-04-16T00:31:16.739Z,13.93
2019-04-16T00:34:18.428Z,14.17
2019-04-16T00:37:21.284Z,13.60
2019-04-16T00:40:26.388Z,15.17
2019-04-16T00:43:27.055Z,13.93
2019-04-16T00:46:28.479Z,13.83
2019-04-16T00:49:29.824Z,13.50
2019-04-16T00:52:31.159Z,14.13
2019-04-16T00:55:32.486Z,14.20
2019-04-16T00:58:33.840Z,14.77
2019-04-16T01:01:35.282Z,15.63
2019-04-16T01:04:36.604Z,13.73
2019-04-16T01:07:37.917Z,14.70
2019-04-16T01:10:39.325Z,14.63
2019-04-16T01:13:40.717Z,14.77
2019-04-16T01:16:42.134Z,14.43
2019-04-16T01:19:43.471Z,16.40
2019-04-16T01:22:46.871Z,14.27
2019-04-16T01:25:48.924Z,14.60
2019-04-16T01:28:55.482Z,14.53
2019-04-16T01:32:11.250Z,15.20
2019-04-16T01:35:29.346Z,14.90
2019-04-16T01:38:51.167Z,14.10
2019-04-16T01:41:53.317Z,16.53
2019-04-16T01:44:59.411Z,16.37
2019-04-16T01:47:58.014Z,13.93
2019-04-16T01:50:59.638Z,14.87
2019-04-16T01:54:00.993Z,15.10
2019-04-16T01:57:02.682Z,14.70
2019-04-16T02:00:07.807Z,14.10
2019-04-16T02:03:09.184Z,14.90
2019-04-16T02:06:10.534Z,16.73
2019-04-16T02:09:22.421Z,17.00
2019-04-16T02:12:14.948Z,15.37
2019-04-16T02:15:16.260Z,16.00
2019-04-16T02:18:17.590Z,14.73
2019-04-16T02:21:18.948Z,15.27
2019-04-16T02:24:20.261Z,14.53
2019-04-16T02:27:23.513Z,14.30
2019-04-16T02:30:24.724Z,15.73
2019-04-16T02:33:26.047Z,15.70
2019-04-16T02:36:27.417Z,14.77
2019-04-16T02:39:46.925Z,14.73
2019-04-16T02:42:32.172Z,15.10
2019-04-16T02:45:34.650Z,14.20
2019-04-16T02:48:36.003Z,15.13
2019-04-16T02:51:54.853Z,14.53
2019-04-16T02:55:16.377Z,15.07
2019-04-16T02:58:22.238Z,15.80
2019-04-16T03:01:45.593Z,14.27
2019-04-16T03:04:51.814Z,14.70
2019-04-16T03:07:53.180Z,15.23
2019-04-16T03:10:54.591Z,15.50
2019-04-16T03:13:59.187Z,15.17
2019-04-16T03:17:24.125Z,14.83
2019-04-16T03:20:25.503Z,16.30
2019-04-16T03:23:26.897Z,15.80
2019-04-16T03:26:28.264Z,14.57
2019-04-16T03:29:30.462Z,14.67
2019-04-16T03:32:36.238Z,15.40
2019-04-16T03:35:37.319Z,14.57
2019-04-16T03:38:41.993Z,13.83
2019-04-16T03:41:41.828Z,14.37
2019-04-16T03:44:43.201Z,14.73
2019-04-16T03:47:44.564Z,15.23
2019-04-16T03:50:45.907Z,15.03
2019-04-16T03:53:49.569Z,14.57
2019-04-16T03:56:51.391Z,15.30
2019-04-16T03:59:52.736Z,14.80
2019-04-16T04:02:55.119Z,15.20
2019-04-16T04:05:57.427Z,15.63
2019-04-16T04:08:58.769Z,15.47
2019-04-16T04:12:00.123Z,14.90
2019-04-16T04:15:01.491Z,15.30
2019-04-16T04:18:03.971Z,15.87
2019-04-16T04:21:05.353Z,15.40
2019-04-16T04:24:06.747Z,15.63
2019-04-16T04:27:12.825Z,14.90
2019-04-16T04:30:11.965Z,14.43
2019-04-16T04:33:32.663Z,14.90
2019-04-16T04:36:34.039Z,14.17
2019-04-16T04:39:35.383Z,13.97
2019-04-16T04:42:36.780Z,14.23
2019-04-16T04:45:40.935Z,14.90
2019-04-16T04:48:41.188Z,15.27
2019-04-16T04:51:43.648Z,14.83
2019-04-16T04:54:45.051Z,14.23
2019-04-16T04:57:46.379Z,14.63
2019-04-16T05:00:47.720Z,14.97
2019-04-16T05:04:20.423Z,15.27
2019-04-16T05:07:20.563Z,16.37
2019-04-16T05:10:21.892Z,16.30
2019-04-16T05:13:24.863Z,16.17
2019-04-16T05:16:26.313Z,16.03
2019-04-16T05:19:27.666Z,16.83
2019-04-16T05:22:29.014Z,15.77
2019-04-16T05:25:33.561Z,16.20
2019-04-16T05:28:33.425Z,15.17
2019-04-16T05:31:34.768Z,15.90
2019-04-16T05:34:37.458Z,15.80
2019-04-16T05:37:39.200Z,15.83
2019-04-16T05:40:40.559Z,15.47
2019-04-16T05:43:41.945Z,15.23
2019-04-16T05:46:46.645Z,16.10
2019-04-16T05:49:46.410Z,15.33
2019-04-16T05:52:47.787Z,15.60
2019-04-16T05:56:11.133Z,16.07
2019-04-16T05:59:12.469Z,15.87
2019-04-16T06:02:19.950Z,14.60
2019-04-16T06:05:21.763Z,14.93
2019-04-16T06:08:24.526Z,15.37
2019-04-16T06:11:29.016Z,14.93
2019-04-16T06:14:49.517Z,14.57
2019-04-16T06:18:10.075Z,14.57
2019-04-16T06:21:25.841Z,16.60
2019-04-16T06:24:47.974Z,14.87
2019-04-16T06:28:08.268Z,14.53
2019-04-16T06:31:27.200Z,15.90
2019-04-16T06:34:43.826Z,15.73
2019-04-16T06:37:51.852Z,16.33
2019-04-16T06:41:21.434Z,15.37
2019-04-16T06:44:24.123Z,14.53
2019-04-16T06:47:42.865Z,14.90
2019-04-16T06:50:52.331Z,16.27
2019-04-16T06:54:04.638Z,16.40
2019-04-16T06:57:30.748Z,14.63
2019-04-16T07:00:42.978Z,14.00
2019-04-16T07:03:59.470Z,14.07
2019-04-16T07:07:16.490Z,13.90
2019-04-16T07:10:19.901Z,13.97
2019-04-16T07:13:21.461Z,14.40
2019-04-16T07:16:27.899Z,14.70
2019-04-16T07:19:25.952Z,13.53
2019-04-16T07:22:27.342Z,13.83
2019-04-16T07:25:29.868Z,13.57
2019-04-16T07:28:39.964Z,14.00
2019-04-16T07:31:53.283Z,12.68
2019-04-16T07:35:19.247Z,13.50
2019-04-16T07:38:27.774Z,13.80
2019-04-16T07:42:07.844Z,14.58
2019-04-16T07:45:11.366Z,14.10
2019-04-16T07:48:25.384Z,14.20
2019-04-16T07:51:38.604Z,15.90
2019-04-16T07:54:50.192Z,15.83
2019-04-16T07:57:51.614Z,15.15
2019-04-16T08:00:53.227Z,15.60
2019-04-16T08:03:56.856Z,14.95
2019-04-16T08:06:58.992Z,15.88
2019-04-16T08:10:02.111Z,15.88
2019-04-16T08:13:23.052Z,15.63
2019-04-16T08:16:24.495Z,17.27
2019-04-16T08:19:36.769Z,15.88
2019-04-16T08:22:29.219Z,16.67
2019-04-16T08:25:34.031Z,16.57
2019-04-16T08:28:34.477Z,16.85
2019-04-16T08:31:43.479Z,15.05
2019-04-16T08:34:42.515Z,17.45
2019-04-16T08:37:49.106Z,16.82
2019-04-16T08:40:47.034Z,16.42
2019-04-16T08:43:48.437Z,16.77
2019-04-16T08:46:49.859Z,15.90
2019-04-16T08:49:54.126Z,16.65
2019-04-16T08:52:54.424Z,16.40
2019-04-16T08:55:56.155Z,16.32
2019-04-16T08:59:00.911Z,15.98
2019-04-16T09:02:00.793Z,14.73
2019-04-16T09:05:05.895Z,16.27
2019-04-16T09:08:22.090Z,15.83
2019-04-16T09:11:23.921Z,15.95
2019-04-16T09:14:27.343Z,15.03
2019-04-16T09:17:31.990Z,16.42
2019-04-16T09:20:37.826Z,15.83
2019-04-16T09:23:39.954Z,16.00
2019-04-16T09:26:52.742Z,15.72
2019-04-16T09:30:17.814Z,15.50
2019-04-16T09:33:22.717Z,15.98
2019-04-16T09:36:45.846Z,15.98
2019-04-16T09:39:59.621Z,14.20
2019-04-16T09:43:15.791Z,14.83
2019-04-16T09:46:11.027Z,15.95
2019-04-16T09:49:08.586Z,13.50
2019-04-16T09:52:10.098Z,14.40
2019-04-16T09:55:11.635Z,16.15
2019-04-16T09:58:22.490Z,16.23
2019-04-16T10:01:27.853Z,14.98
2019-04-16T10:04:29.392Z,15.35
2019-04-16T10:07:30.823Z,14.83
2019-04-16T10:10:32.269Z,14.00
2019-04-16T10:13:36.063Z,14.87
2019-04-16T10:16:37.014Z,15.25
2019-04-16T10:19:43.017Z,14.75
2019-04-16T10:22:41.750Z,12.23
2019-04-16T10:25:44.146Z,13.13
2019-04-16T10:28:45.607Z,14.13
2019-04-16T10:31:47.174Z,10.72
2019-04-16T10:34:48.595Z,9.70
2019-04-16T10:37:50.072Z,10.40
2019-04-16T10:40:57.099Z,10.53
2019-04-16T10:44:17.520Z,8.55
2019-04-16T10:47:36.793Z,8.40
2019-04-16T10:50:47.386Z,8.45
2019-04-16T10:54:02.862Z,8.38
2019-04-16T10:57:22.366Z,7.90
2019-04-16T11:00:42.858Z,6.45
2019-04-16T11:04:19.738Z,7.33
2019-04-16T11:07:24.355Z,8.70
2019-04-16T11:10:25.776Z,7.28
2019-04-16T11:13:33.212Z,7.97
2019-04-16T11:16:36.110Z,9.23
2019-04-16T11:19:37.655Z,7.17
2019-04-16T11:22:39.117Z,6.15
2019-04-16T11:25:40.592Z,5.97
2019-04-16T11:28:42.001Z,7.30
2019-04-16T11:31:43.705Z,7.78
2019-04-16T11:34:45.094Z,6.83
2019-04-16T11:38:05.692Z,7.65
2019-04-16T11:41:08.126Z,5.92
2019-04-16T11:44:16.191Z,4.75
2019-04-16T11:47:12.594Z,5.25
2019-04-16T11:50:13.957Z,6.30
2019-04-16T11:53:16.511Z,5.80
2019-04-16T11:56:22.393Z,4.72
2019-04-16T11:59:22.030Z,5.33
2019-04-16T12:02:30.422Z,4.47
2019-04-16T12:05:36.304Z,4.30
2019-04-16T12:09:05.667Z,3.70
2019-04-16T12:12:12.087Z,4.90
2019-04-16T12:15:32.442Z,4.55
2019-04-16T12:18:51.757Z,3.98
2019-04-16T12:22:24.225Z,4.33
2019-04-16T12:25:36.081Z,4.47
2019-04-16T12:29:01.906Z,5.05
2019-04-16T12:32:09.171Z,4.75
2019-04-16T12:35:31.124Z,5.10
2019-04-16T12:38:39.912Z,4.85
2019-04-16T12:42:00.338Z,5.33
2019-04-16T12:45:19.069Z,5.80
2019-04-16T12:48:42.422Z,5.05
2019-04-16T12:52:02.923Z,5.55
2019-04-16T12:55:31.697Z,6.05
2019-04-16T12:59:03.209Z,5.78
2019-04-16T13:02:18.539Z,5.97
2019-04-16T13:05:28.989Z,5.72
2019-04-16T13:08:39.758Z,5.37
2019-04-16T13:11:47.209Z,5.60
2019-04-16T13:15:06.590Z,5.53
2019-04-16T13:18:14.855Z,6.50
2019-04-16T13:21:18.985Z,5.62
2019-04-16T13:24:29.374Z,5.97
2019-04-16T13:27:33.344Z,6.25
2019-04-16T13:30:34.721Z,5.47
2019-04-16T13:33:37.209Z,6.33
2019-04-16T13:36:38.781Z,5.72
2019-04-16T13:39:49.256Z,5.80
2019-04-16T13:42:50.650Z,6.10
2019-04-16T13:45:52.029Z,5.80
2019-04-16T13:49:05.074Z,5.55
2019-04-16T13:52:06.486Z,5.47
2019-04-16T13:55:25.640Z,6.03
2019-04-16T13:58:34.833Z,6.25
2019-04-16T14:01:45.194Z,5.65
2019-04-16T14:04:43.608Z,5.05
2019-04-16T14:07:44.990Z,5.40
2019-04-16T14:10:46.358Z,6.03
2019-04-16T14:13:50.169Z,5.75
2019-04-16T14:16:50.844Z,5.92
2019-04-16T14:19:52.237Z,6.50
2019-04-16T14:22:54.276Z,5.97
2019-04-16T14:25:55.863Z,6.67
2019-04-16T14:28:57.257Z,6.70
2019-04-16T14:31:58.793Z,6.70
2019-04-16T14:35:02.896Z,6.50
2019-04-16T14:38:04.272Z,6.83
2019-04-16T14:41:06.031Z,7.08
2019-04-16T14:44:11.178Z,7.35
2019-04-16T14:47:12.674Z,7.08
2019-04-16T14:50:14.057Z,7.05
2019-04-16T14:53:28.561Z,7.75
2019-04-16T14:56:37.609Z,6.42
2019-04-16T15:00:17.469Z,6.75
2019-04-16T15:03:36.355Z,6.50
2019-04-16T15:07:12.142Z,6.92
2019-04-16T15:10:22.120Z,7.78
2019-04-16T15:13:57.834Z,6.20
2019-04-16T15:17:06.011Z,5.47
2019-04-16T15:20:25.516Z,5.35
2019-04-16T15:24:02.088Z,5.40
2019-04-16T15:27:31.813Z,5.72
2019-04-16T15:30:53.931Z,5.47
2019-04-16T15:34:11.105Z,5.28
2019-04-16T15:37:19.668Z,5.20
2019-04-16T15:40:33.444Z,5.97
2019-04-16T15:43:50.441Z,5.83
2019-04-16T15:46:57.781Z,6.05
2019-04-16T15:50:07.144Z,5.90
2019-04-16T15:53:27.517Z,6.95
2019-04-16T15:56:40.692Z,7.87
2019-04-16T16:00:03.427Z,8.90
2019-04-16T16:03:22.732Z,9.15
2019-04-16T16:06:25.531Z,10.00
2019-04-16T16:09:51.933Z,11.50
2019-04-16T16:12:53.962Z,10.48
2019-04-16T16:15:55.856Z,12.05
2019-04-16T16:18:57.289Z,9.05
2019-04-16T16:21:58.714Z,8.08
2019-04-16T16:25:00.089Z,7.58
2019-04-16T16:28:01.452Z,7.33
2019-04-16T16:31:02.817Z,6.35
2019-04-16T16:34:08.029Z,6.45
2019-04-16T16:37:07.691Z,7.08
2019-04-16T16:40:11.947Z,6.55
2019-04-16T16:43:14.277Z,7.50
2019-04-16T16:46:31.503Z,7.15
2019-04-16T16:49:32.971Z,6.95
2019-04-16T16:53:02.304Z,6.67
2019-04-16T16:56:13.643Z,7.00
2019-04-16T16:59:31.781Z,7.20
2019-04-16T17:02:38.028Z,7.40
2019-04-16T17:05:40.936Z,7.05
2019-04-16T17:08:42.350Z,7.42
2019-04-16T17:11:44.083Z,7.42
2019-04-16T17:14:45.513Z,7.95
2019-04-16T17:17:46.971Z,8.13
2019-04-16T17:20:50.186Z,7.60
2019-04-16T17:23:51.574Z,7.08
2019-04-16T17:26:52.970Z,6.08
2019-04-16T17:29:54.492Z,5.90
2019-04-16T17:32:55.921Z,6.05
2019-04-16T17:35:57.408Z,5.90
2019-04-16T17:38:58.792Z,6.03
2019-04-16T17:42:05.322Z,6.90
2019-04-16T17:45:44.931Z,6.95
2019-04-16T17:48:57.197Z,6.53
2019-04-16T17:52:18.631Z,5.37
2019-04-16T17:55:28.591Z,7.58
2019-04-16T17:58:41.913Z,6.80
2019-04-16T18:01:54.662Z,6.42
2019-04-16T18:05:15.007Z,5.85
2019-04-16T18:08:35.376Z,5.25
2019-04-16T18:11:52.582Z,5.28
2019-04-16T18:15:09.172Z,4.15
2019-04-16T18:18:16.821Z,5.70
2019-04-16T18:21:39.828Z,4.90
2019-04-16T18:25:12.295Z,5.28
2019-04-16T18:28:18.853Z,5.30
2019-04-16T18:31:39.214Z,4.67
2019-04-16T18:34:53.803Z,5.08
2019-04-16T18:38:19.060Z,5.50
2019-04-16T18:41:32.562Z,4.78
2019-04-16T18:44:54.936Z,4.87
2019-04-16T18:48:12.977Z,4.67
2019-04-16T18:51:09.461Z,5.08
2019-04-16T18:54:10.904Z,5.20
2019-04-16T18:57:12.347Z,5.03
2019-04-16T19:00:28.650Z,4.30
2019-04-16T19:03:31.404Z,4.55
2019-04-16T19:06:32.902Z,6.55
2019-04-16T19:09:34.336Z,6.78
2019-04-16T19:12:35.832Z,4.45
2019-04-16T19:15:37.275Z,4.65
2019-04-16T19:18:38.821Z,5.37
2019-04-16T19:21:42.313Z,4.75
2019-04-16T19:24:43.528Z,4.33
2019-04-16T19:27:48.682Z,4.33
2019-04-16T19:30:48.077Z,4.22
2019-04-16T19:33:49.506Z,4.20
2019-04-16T19:36:50.943Z,3.98
2019-04-16T19:39:52.374Z,3.70
2019-04-16T19:42:54.040Z,4.13
2019-04-16T19:45:55.660Z,3.85
2019-04-16T19:49:00.418Z,4.58
2019-04-16T19:52:00.547Z,4.00
2019-04-16T19:55:02.141Z,4.63
2019-04-16T19:58:03.641Z,4.73
2019-04-16T20:01:05.158Z,5.55
2019-04-16T20:04:10.640Z,5.53
2019-04-16T20:07:10.076Z,7.00
2019-04-16T20:10:11.692Z,9.17
2019-04-16T20:13:13.164Z,6.00
2019-04-16T20:16:15.688Z,8.35
2019-04-16T20:19:17.069Z,7.03
2019-04-16T20:22:18.503Z,6.50
2019-04-16T20:25:19.924Z,6.90
2019-04-16T20:28:21.339Z,6.00
2019-04-16T20:31:22.809Z,5.97
2019-04-16T20:34:24.254Z,6.27
2019-04-16T20:37:25.680Z,6.75
2019-04-16T20:40:27.081Z,5.78
2019-04-16T20:43:28.552Z,9.23
2019-04-16T20:46:30.107Z,12.77
2019-04-16T20:49:31.524Z,10.70
2019-04-16T20:52:34.159Z,8.50
2019-04-16T20:55:36.093Z,7.23
2019-04-16T20:58:37.478Z,7.08
2019-04-16T21:01:38.908Z,7.40
2019-04-16T21:04:40.340Z,8.23
2019-04-16T21:07:43.946Z,8.77
2019-04-16T21:10:44.859Z,8.30
2019-04-16T21:13:46.933Z,8.88
2019-04-16T21:16:49.372Z,12.40
2019-04-16T21:19:50.820Z,11.43
2019-04-16T21:22:52.536Z,10.10
2019-04-16T21:25:53.939Z,9.57
2019-04-16T21:29:02.008Z,10.50
2019-04-16T21:32:05.252Z,11.10
2019-04-16T21:35:13.913Z,10.10
2019-04-16T21:38:37.002Z,9.20
2019-04-16T21:41:38.387Z,9.27
2019-04-16T21:44:41.355Z,9.43
2019-04-16T21:47:42.928Z,9.90
2019-04-16T21:50:44.631Z,9.73
2019-04-16T21:53:47.508Z,10.60
2019-04-16T21:56:48.925Z,10.77
2019-04-16T21:59:56.930Z,10.98
2019-04-16T22:02:53.708Z,10.27
2019-04-16T22:05:55.135Z,11.78
2019-04-16T22:08:59.085Z,11.97
2019-04-16T22:11:59.781Z,11.43
2019-04-16T22:15:01.174Z,11.93
2019-04-16T22:18:07.547Z,11.43
2019-04-16T22:21:09.792Z,11.40
2019-04-16T22:24:09.128Z,11.40
2019-04-16T22:27:10.518Z,11.50
2019-04-16T22:30:11.927Z,12.00
2019-04-16T22:33:13.320Z,12.10
2019-04-16T22:36:15.688Z,11.07
2019-04-16T22:39:38.953Z,10.28
2019-04-16T22:43:07.944Z,10.37
2019-04-16T22:46:12.339Z,11.73
2019-04-16T22:49:13.842Z,10.23
2019-04-16T22:52:15.214Z,10.47
2019-04-16T22:55:16.687Z,10.10
2019-04-16T22:58:25.081Z,10.00
2019-04-16T23:01:27.931Z,9.75
2019-04-16T23:04:29.345Z,10.30
2019-04-16T23:07:30.761Z,9.83
2019-04-16T23:10:32.146Z,10.63
2019-04-16T23:13:33.584Z,11.73
2019-04-16T23:16:34.965Z,11.60
2019-04-16T23:19:36.344Z,11.30
2019-04-16T23:22:37.765Z,11.43
2019-04-16T23:25:39.227Z,11.35
2019-04-16T23:28:42.479Z,11.37
2019-04-16T23:31:43.705Z,11.43
2019-04-16T23:34:45.127Z,11.90
2019-04-16T23:37:46.544Z,12.40
2019-04-16T23:40:47.964Z,11.57
2019-04-16T23:44:25.831Z,11.23
2019-04-16T23:47:44.533Z,10.80
2019-04-16T23:51:06.386Z,10.80
2019-04-16T23:54:15.076Z,10.70
2019-04-16T23:57:24.740Z,9.30
